sensor_id;sensor_type;location;lat;lon;timestamp;P1;durP1;ratioP1;P2;durP2;ratioP2
17141;SDS011;32805;53.556;9.944;2022-10-16T00:00:49;8.25;;;6.07;;
17141;SDS011;32805;53.556;9.944;2022-10-16T00:03:16;7.22;;;5.55;;
17141;SDS011;32805;53.556;9.944;2022-10-16T00:05:44;6.25;;;5.25;;
17141;SDS011;32805;53.556;9.944;2022-10-16T00:08:12;6.63;;;5.53;;
17141;SDS011;32805;53.556;9.944;2022-10-16T00:10:41;7.00;;;5.20;;
17141;SDS011;32805;53.556;9.944;2022-10-16T00:13:09;9.95;;;5.60;;
17141;SDS011;32805;53.556;9.944;2022-10-16T00:15:37;7.90;;;5.22;;
17141;SDS011;32805;53.556;9.944;2022-10-16T00:18:05;6.07;;;4.35;;
17141;SDS011;32805;53.556;9.944;2022-10-16T00:20:34;7.47;;;4.75;;
17141;SDS011;32805;53.556;9.944;2022-10-16T00:23:03;8.13;;;5.05;;
17141;SDS011;32805;53.556;9.944;2022-10-16T00:25:31;5.70;;;4.30;;
17141;SDS011;32805;53.556;9.944;2022-10-16T00:28:01;6.57;;;4.32;;
17141;SDS011;32805;53.556;9.944;2022-10-16T00:30:29;4.75;;;3.30;;
17141;SDS011;32805;53.556;9.944;2022-10-16T00:32:56;7.50;;;4.65;;
17141;SDS011;32805;53.556;9.944;2022-10-16T00:35:24;3.75;;;2.83;;
17141;SDS011;32805;53.556;9.944;2022-10-16T00:37:51;4.18;;;3.28;;
17141;SDS011;32805;53.556;9.944;2022-10-16T00:40:19;5.93;;;3.85;;
17141;SDS011;32805;53.556;9.944;2022-10-16T00:42:47;6.78;;;3.60;;
17141;SDS011;32805;53.556;9.944;2022-10-16T00:45:17;4.45;;;2.67;;
17141;SDS011;32805;53.556;9.944;2022-10-16T00:47:48;5.55;;;3.00;;
17141;SDS011;32805;53.556;9.944;2022-10-16T00:50:18;3.33;;;2.40;;
17141;SDS011;32805;53.556;9.944;2022-10-16T00:52:51;4.13;;;2.85;;
17141;SDS011;32805;53.556;9.944;2022-10-16T00:55:20;5.43;;;2.70;;
17141;SDS011;32805;53.556;9.944;2022-10-16T00:57:50;3.53;;;2.78;;
17141;SDS011;32805;53.556;9.944;2022-10-16T01:00:21;3.95;;;2.45;;
17141;SDS011;32805;53.556;9.944;2022-10-16T01:02:53;3.83;;;2.45;;
17141;SDS011;32805;53.556;9.944;2022-10-16T01:05:23;7.65;;;3.03;;
17141;SDS011;32805;53.556;9.944;2022-10-16T01:07:56;3.60;;;2.63;;
17141;SDS011;32805;53.556;9.944;2022-10-16T01:10:34;5.13;;;2.70;;
17141;SDS011;32805;53.556;9.944;2022-10-16T01:13:06;4.57;;;2.60;;
17141;SDS011;32805;53.556;9.944;2022-10-16T01:15:37;5.53;;;2.45;;
17141;SDS011;32805;53.556;9.944;2022-10-16T01:18:11;4.60;;;2.33;;
17141;SDS011;32805;53.556;9.944;2022-10-16T01:20:44;3.55;;;2.33;;
17141;SDS011;32805;53.556;9.944;2022-10-16T01:23:21;3.15;;;2.10;;
17141;SDS011;32805;53.556;9.944;2022-10-16T01:26:04;3.95;;;2.20;;
17141;SDS011;32805;53.556;9.944;2022-10-16T01:28:55;2.75;;;1.83;;
17141;SDS011;32805;53.556;9.944;2022-10-16T01:31:25;5.38;;;2.42;;
17141;SDS011;32805;53.556;9.944;2022-10-16T01:33:58;6.53;;;2.10;;
17141;SDS011;32805;53.556;9.944;2022-10-16T01:36:31;3.30;;;2.50;;
17141;SDS011;32805;53.556;9.944;2022-10-16T01:39:03;5.88;;;2.33;;
17141;SDS011;32805;53.556;9.944;2022-10-16T01:41:36;3.42;;;2.50;;
17141;SDS011;32805;53.556;9.944;2022-10-16T01:44:09;5.00;;;2.55;;
17141;SDS011;32805;53.556;9.944;2022-10-16T01:46:39;4.05;;;2.30;;
17141;SDS011;32805;53.556;9.944;2022-10-16T01:49:10;3.60;;;2.25;;
17141;SDS011;32805;53.556;9.944;2022-10-16T01:51:39;3.33;;;2.42;;
17141;SDS011;32805;53.556;9.944;2022-10-16T01:54:09;2.38;;;2.10;;
17141;SDS011;32805;53.556;9.944;2022-10-16T01:56:39;4.22;;;2.30;;
17141;SDS011;32805;53.556;9.944;2022-10-16T01:59:11;4.93;;;2.45;;
17141;SDS011;32805;53.556;9.944;2022-10-16T02:01:42;4.10;;;2.10;;
17141;SDS011;32805;53.556;9.944;2022-10-16T02:04:14;4.88;;;2.60;;
17141;SDS011;32805;53.556;9.944;2022-10-16T02:06:44;3.15;;;2.30;;
17141;SDS011;32805;53.556;9.944;2022-10-16T02:09:12;6.88;;;3.70;;
17141;SDS011;32805;53.556;9.944;2022-10-16T02:11:42;5.15;;;2.65;;
17141;SDS011;32805;53.556;9.944;2022-10-16T02:14:11;5.10;;;2.53;;
17141;SDS011;32805;53.556;9.944;2022-10-16T02:16:39;6.22;;;2.55;;
17141;SDS011;32805;53.556;9.944;2022-10-16T02:19:10;4.57;;;2.85;;
17141;SDS011;32805;53.556;9.944;2022-10-16T02:21:40;2.72;;;1.95;;
17141;SDS011;32805;53.556;9.944;2022-10-16T02:24:14;3.78;;;3.00;;
17141;SDS011;32805;53.556;9.944;2022-10-16T02:26:50;5.72;;;2.72;;
17141;SDS011;32805;53.556;9.944;2022-10-16T02:29:23;2.72;;;2.35;;
17141;SDS011;32805;53.556;9.944;2022-10-16T02:31:53;6.53;;;2.22;;
17141;SDS011;32805;53.556;9.944;2022-10-16T02:34:25;2.70;;;2.17;;
17141;SDS011;32805;53.556;9.944;2022-10-16T02:36:54;13.13;;;2.75;;
17141;SDS011;32805;53.556;9.944;2022-10-16T02:39:24;6.10;;;2.42;;
17141;SDS011;32805;53.556;9.944;2022-10-16T02:41:54;3.55;;;2.13;;
17141;SDS011;32805;53.556;9.944;2022-10-16T02:44:23;3.78;;;2.45;;
17141;SDS011;32805;53.556;9.944;2022-10-16T02:46:50;6.70;;;2.28;;
17141;SDS011;32805;53.556;9.944;2022-10-16T02:49:18;4.68;;;2.17;;
17141;SDS011;32805;53.556;9.944;2022-10-16T02:51:46;4.60;;;2.40;;
17141;SDS011;32805;53.556;9.944;2022-10-16T02:54:13;3.78;;;2.00;;
17141;SDS011;32805;53.556;9.944;2022-10-16T02:56:41;2.90;;;1.90;;
17141;SDS011;32805;53.556;9.944;2022-10-16T02:59:09;3.80;;;1.92;;
17141;SDS011;32805;53.556;9.944;2022-10-16T03:01:38;2.90;;;1.80;;
17141;SDS011;32805;53.556;9.944;2022-10-16T03:04:06;4.45;;;2.08;;
17141;SDS011;32805;53.556;9.944;2022-10-16T03:06:35;3.80;;;1.90;;
17141;SDS011;32805;53.556;9.944;2022-10-16T03:09:03;2.40;;;2.05;;
17141;SDS011;32805;53.556;9.944;2022-10-16T03:11:31;5.07;;;2.40;;
17141;SDS011;32805;53.556;9.944;2022-10-16T03:13:58;3.70;;;2.00;;
17141;SDS011;32805;53.556;9.944;2022-10-16T03:16:26;2.60;;;2.08;;
17141;SDS011;32805;53.556;9.944;2022-10-16T03:18:55;4.15;;;2.13;;
17141;SDS011;32805;53.556;9.944;2022-10-16T03:21:22;2.63;;;1.60;;
17141;SDS011;32805;53.556;9.944;2022-10-16T03:23:51;4.63;;;1.73;;
17141;SDS011;32805;53.556;9.944;2022-10-16T03:26:18;3.85;;;1.75;;
17141;SDS011;32805;53.556;9.944;2022-10-16T03:28:46;4.10;;;1.65;;
17141;SDS011;32805;53.556;9.944;2022-10-16T03:31:13;4.68;;;1.70;;
17141;SDS011;32805;53.556;9.944;2022-10-16T03:33:41;2.58;;;1.58;;
17141;SDS011;32805;53.556;9.944;2022-10-16T03:36:10;2.00;;;1.70;;
17141;SDS011;32805;53.556;9.944;2022-10-16T03:38:38;4.35;;;2.10;;
17141;SDS011;32805;53.556;9.944;2022-10-16T03:41:05;7.38;;;1.77;;
17141;SDS011;32805;53.556;9.944;2022-10-16T03:43:34;3.47;;;1.65;;
17141;SDS011;32805;53.556;9.944;2022-10-16T03:46:02;3.75;;;1.90;;
17141;SDS011;32805;53.556;9.944;2022-10-16T03:48:29;3.35;;;1.80;;
17141;SDS011;32805;53.556;9.944;2022-10-16T03:50:58;3.70;;;1.70;;
17141;SDS011;32805;53.556;9.944;2022-10-16T03:53:27;2.80;;;1.58;;
17141;SDS011;32805;53.556;9.944;2022-10-16T03:55:54;4.32;;;2.22;;
17141;SDS011;32805;53.556;9.944;2022-10-16T03:58:22;3.47;;;1.67;;
17141;SDS011;32805;53.556;9.944;2022-10-16T04:00:50;2.80;;;1.73;;
17141;SDS011;32805;53.556;9.944;2022-10-16T04:03:18;1.98;;;1.70;;
17141;SDS011;32805;53.556;9.944;2022-10-16T04:05:48;3.85;;;1.48;;
17141;SDS011;32805;53.556;9.944;2022-10-16T04:08:16;4.78;;;1.98;;
17141;SDS011;32805;53.556;9.944;2022-10-16T04:10:45;4.20;;;1.83;;
17141;SDS011;32805;53.556;9.944;2022-10-16T04:13:13;4.30;;;1.80;;
17141;SDS011;32805;53.556;9.944;2022-10-16T04:15:41;3.80;;;1.75;;
17141;SDS011;32805;53.556;9.944;2022-10-16T04:18:09;3.00;;;1.63;;
17141;SDS011;32805;53.556;9.944;2022-10-16T04:20:38;2.83;;;1.95;;
17141;SDS011;32805;53.556;9.944;2022-10-16T04:23:06;4.40;;;1.92;;
17141;SDS011;32805;53.556;9.944;2022-10-16T04:25:33;2.63;;;1.75;;
17141;SDS011;32805;53.556;9.944;2022-10-16T04:28:02;5.00;;;1.92;;
17141;SDS011;32805;53.556;9.944;2022-10-16T04:30:30;2.88;;;1.70;;
17141;SDS011;32805;53.556;9.944;2022-10-16T04:32:59;3.00;;;1.77;;
17141;SDS011;32805;53.556;9.944;2022-10-16T04:35:27;4.60;;;1.90;;
17141;SDS011;32805;53.556;9.944;2022-10-16T04:37:56;4.28;;;1.75;;
17141;SDS011;32805;53.556;9.944;2022-10-16T04:40:24;3.60;;;2.03;;
17141;SDS011;32805;53.556;9.944;2022-10-16T04:42:52;5.22;;;1.95;;
17141;SDS011;32805;53.556;9.944;2022-10-16T04:45:21;6.70;;;2.15;;
17141;SDS011;32805;53.556;9.944;2022-10-16T04:47:48;3.85;;;1.98;;
17141;SDS011;32805;53.556;9.944;2022-10-16T04:50:16;2.75;;;1.75;;
17141;SDS011;32805;53.556;9.944;2022-10-16T04:53:00;4.25;;;1.75;;
17141;SDS011;32805;53.556;9.944;2022-10-16T04:55:27;6.32;;;2.15;;
17141;SDS011;32805;53.556;9.944;2022-10-16T04:57:55;5.90;;;2.42;;
17141;SDS011;32805;53.556;9.944;2022-10-16T05:00:24;4.57;;;2.47;;
17141;SDS011;32805;53.556;9.944;2022-10-16T05:02:52;5.40;;;2.53;;
17141;SDS011;32805;53.556;9.944;2022-10-16T05:05:20;4.28;;;2.10;;
17141;SDS011;32805;53.556;9.944;2022-10-16T05:07:47;4.50;;;2.22;;
17141;SDS011;32805;53.556;9.944;2022-10-16T05:10:15;6.70;;;2.53;;
17141;SDS011;32805;53.556;9.944;2022-10-16T05:12:43;4.45;;;2.42;;
17141;SDS011;32805;53.556;9.944;2022-10-16T05:15:11;3.13;;;2.60;;
17141;SDS011;32805;53.556;9.944;2022-10-16T05:17:40;4.03;;;2.28;;
17141;SDS011;32805;53.556;9.944;2022-10-16T05:20:10;4.93;;;2.78;;
17141;SDS011;32805;53.556;9.944;2022-10-16T05:22:38;8.18;;;3.22;;
17141;SDS011;32805;53.556;9.944;2022-10-16T05:25:06;4.03;;;2.13;;
17141;SDS011;32805;53.556;9.944;2022-10-16T05:27:34;7.22;;;2.90;;
17141;SDS011;32805;53.556;9.944;2022-10-16T05:30:02;8.00;;;2.90;;
17141;SDS011;32805;53.556;9.944;2022-10-16T05:32:35;3.10;;;2.42;;
17141;SDS011;32805;53.556;9.944;2022-10-16T05:35:04;6.28;;;2.67;;
17141;SDS011;32805;53.556;9.944;2022-10-16T05:37:37;6.82;;;2.45;;
17141;SDS011;32805;53.556;9.944;2022-10-16T05:40:05;4.63;;;2.40;;
17141;SDS011;32805;53.556;9.944;2022-10-16T05:42:34;8.57;;;3.58;;
17141;SDS011;32805;53.556;9.944;2022-10-16T05:45:01;5.78;;;2.13;;
17141;SDS011;32805;53.556;9.944;2022-10-16T05:47:30;3.75;;;2.20;;
17141;SDS011;32805;53.556;9.944;2022-10-16T05:49:57;5.13;;;2.40;;
17141;SDS011;32805;53.556;9.944;2022-10-16T05:52:27;2.70;;;2.00;;
17141;SDS011;32805;53.556;9.944;2022-10-16T05:54:55;4.57;;;1.80;;
17141;SDS011;32805;53.556;9.944;2022-10-16T05:57:22;5.80;;;2.10;;
17141;SDS011;32805;53.556;9.944;2022-10-16T05:59:51;2.60;;;2.05;;
17141;SDS011;32805;53.556;9.944;2022-10-16T06:02:18;2.95;;;1.70;;
17141;SDS011;32805;53.556;9.944;2022-10-16T06:04:46;7.47;;;2.60;;
17141;SDS011;32805;53.556;9.944;2022-10-16T06:07:14;2.65;;;2.15;;
17141;SDS011;32805;53.556;9.944;2022-10-16T06:09:43;6.72;;;2.75;;
17141;SDS011;32805;53.556;9.944;2022-10-16T06:12:10;2.63;;;1.88;;
17141;SDS011;32805;53.556;9.944;2022-10-16T06:14:38;3.03;;;1.63;;
17141;SDS011;32805;53.556;9.944;2022-10-16T06:17:06;5.57;;;2.42;;
17141;SDS011;32805;53.556;9.944;2022-10-16T06:19:33;4.50;;;2.08;;
17141;SDS011;32805;53.556;9.944;2022-10-16T06:22:01;2.67;;;1.90;;
17141;SDS011;32805;53.556;9.944;2022-10-16T06:24:30;3.92;;;2.00;;
17141;SDS011;32805;53.556;9.944;2022-10-16T06:27:00;5.40;;;2.20;;
17141;SDS011;32805;53.556;9.944;2022-10-16T06:29:27;3.47;;;1.70;;
17141;SDS011;32805;53.556;9.944;2022-10-16T06:31:55;3.90;;;2.00;;
17141;SDS011;32805;53.556;9.944;2022-10-16T06:34:22;5.93;;;2.10;;
17141;SDS011;32805;53.556;9.944;2022-10-16T06:36:50;2.20;;;1.98;;
17141;SDS011;32805;53.556;9.944;2022-10-16T06:39:18;2.72;;;1.90;;
17141;SDS011;32805;53.556;9.944;2022-10-16T06:41:45;4.40;;;2.28;;
17141;SDS011;32805;53.556;9.944;2022-10-16T06:44:18;2.38;;;1.98;;
17141;SDS011;32805;53.556;9.944;2022-10-16T06:46:45;4.88;;;2.30;;
17141;SDS011;32805;53.556;9.944;2022-10-16T06:49:13;3.90;;;2.00;;
17141;SDS011;32805;53.556;9.944;2022-10-16T06:51:47;3.42;;;2.10;;
17141;SDS011;32805;53.556;9.944;2022-10-16T06:54:15;4.20;;;1.80;;
17141;SDS011;32805;53.556;9.944;2022-10-16T06:56:44;5.15;;;2.42;;
17141;SDS011;32805;53.556;9.944;2022-10-16T06:59:12;12.52;;;4.32;;
17141;SDS011;32805;53.556;9.944;2022-10-16T07:01:40;4.78;;;2.55;;
17141;SDS011;32805;53.556;9.944;2022-10-16T07:04:08;6.57;;;2.65;;
17141;SDS011;32805;53.556;9.944;2022-10-16T07:06:36;3.35;;;2.42;;
17141;SDS011;32805;53.556;9.944;2022-10-16T07:09:04;5.85;;;2.50;;
17141;SDS011;32805;53.556;9.944;2022-10-16T07:11:33;3.20;;;2.42;;
17141;SDS011;32805;53.556;9.944;2022-10-16T07:14:00;5.72;;;3.00;;
17141;SDS011;32805;53.556;9.944;2022-10-16T07:16:29;5.65;;;2.60;;
17141;SDS011;32805;53.556;9.944;2022-10-16T07:18:59;9.65;;;3.08;;
17141;SDS011;32805;53.556;9.944;2022-10-16T07:21:28;6.38;;;3.58;;
17141;SDS011;32805;53.556;9.944;2022-10-16T07:23:58;4.10;;;3.10;;
17141;SDS011;32805;53.556;9.944;2022-10-16T07:26:28;3.28;;;2.20;;
17141;SDS011;32805;53.556;9.944;2022-10-16T07:28:57;5.70;;;2.92;;
17141;SDS011;32805;53.556;9.944;2022-10-16T07:31:25;15.77;;;8.05;;
17141;SDS011;32805;53.556;9.944;2022-10-16T07:33:53;6.28;;;4.28;;
17141;SDS011;32805;53.556;9.944;2022-10-16T07:36:22;14.10;;;7.90;;
17141;SDS011;32805;53.556;9.944;2022-10-16T07:38:50;6.75;;;4.20;;
17141;SDS011;32805;53.556;9.944;2022-10-16T07:41:24;12.93;;;6.07;;
17141;SDS011;32805;53.556;9.944;2022-10-16T07:43:52;10.25;;;5.35;;
17141;SDS011;32805;53.556;9.944;2022-10-16T07:46:21;6.55;;;3.88;;
17141;SDS011;32805;53.556;9.944;2022-10-16T07:48:50;10.52;;;4.45;;
17141;SDS011;32805;53.556;9.944;2022-10-16T07:51:18;4.82;;;3.38;;
17141;SDS011;32805;53.556;9.944;2022-10-16T07:53:49;15.43;;;8.60;;
17141;SDS011;32805;53.556;9.944;2022-10-16T07:56:19;6.70;;;4.07;;
17141;SDS011;32805;53.556;9.944;2022-10-16T07:58:47;7.00;;;4.65;;
17141;SDS011;32805;53.556;9.944;2022-10-16T08:01:16;5.30;;;3.33;;
17141;SDS011;32805;53.556;9.944;2022-10-16T08:03:46;6.28;;;3.30;;
17141;SDS011;32805;53.556;9.944;2022-10-16T08:06:16;11.93;;;5.60;;
17141;SDS011;32805;53.556;9.944;2022-10-16T08:08:51;7.72;;;4.25;;
17141;SDS011;32805;53.556;9.944;2022-10-16T08:11:19;5.43;;;3.40;;
17141;SDS011;32805;53.556;9.944;2022-10-16T08:13:47;8.13;;;3.65;;
17141;SDS011;32805;53.556;9.944;2022-10-16T08:16:14;8.70;;;4.47;;
17141;SDS011;32805;53.556;9.944;2022-10-16T08:18:43;5.57;;;3.33;;
17141;SDS011;32805;53.556;9.944;2022-10-16T08:21:12;14.43;;;6.55;;
17141;SDS011;32805;53.556;9.944;2022-10-16T08:23:46;10.27;;;5.40;;
17141;SDS011;32805;53.556;9.944;2022-10-16T08:26:24;6.32;;;4.15;;
17141;SDS011;32805;53.556;9.944;2022-10-16T08:28:53;11.10;;;6.57;;
17141;SDS011;32805;53.556;9.944;2022-10-16T08:31:22;14.05;;;7.45;;
17141;SDS011;32805;53.556;9.944;2022-10-16T08:33:50;6.07;;;3.72;;
17141;SDS011;32805;53.556;9.944;2022-10-16T08:36:19;10.25;;;4.22;;
17141;SDS011;32805;53.556;9.944;2022-10-16T08:38:47;5.47;;;3.47;;
17141;SDS011;32805;53.556;9.944;2022-10-16T08:41:26;11.48;;;6.80;;
17141;SDS011;32805;53.556;9.944;2022-10-16T08:44:09;9.40;;;4.05;;
17141;SDS011;32805;53.556;9.944;2022-10-16T08:46:56;8.27;;;3.97;;
17141;SDS011;32805;53.556;9.944;2022-10-16T08:49:30;5.13;;;3.92;;
17141;SDS011;32805;53.556;9.944;2022-10-16T08:51:58;5.05;;;3.38;;
17141;SDS011;32805;53.556;9.944;2022-10-16T08:54:28;4.28;;;2.33;;
17141;SDS011;32805;53.556;9.944;2022-10-16T08:57:07;8.93;;;5.78;;
17141;SDS011;32805;53.556;9.944;2022-10-16T08:59:36;6.05;;;4.03;;
17141;SDS011;32805;53.556;9.944;2022-10-16T09:02:08;3.15;;;2.83;;
17141;SDS011;32805;53.556;9.944;2022-10-16T09:04:53;10.30;;;4.05;;
17141;SDS011;32805;53.556;9.944;2022-10-16T09:07:39;5.47;;;2.60;;
17141;SDS011;32805;53.556;9.944;2022-10-16T09:10:18;6.40;;;3.42;;
17141;SDS011;32805;53.556;9.944;2022-10-16T09:12:58;3.85;;;2.53;;
17141;SDS011;32805;53.556;9.944;2022-10-16T09:15:34;5.15;;;3.33;;
17141;SDS011;32805;53.556;9.944;2022-10-16T09:18:10;10.85;;;4.72;;
17141;SDS011;32805;53.556;9.944;2022-10-16T09:20:45;4.75;;;3.25;;
17141;SDS011;32805;53.556;9.944;2022-10-16T09:23:17;6.22;;;3.63;;
17141;SDS011;32805;53.556;9.944;2022-10-16T09:25:47;6.38;;;3.17;;
17141;SDS011;32805;53.556;9.944;2022-10-16T09:28:18;6.97;;;2.70;;
17141;SDS011;32805;53.556;9.944;2022-10-16T09:30:46;6.70;;;2.53;;
17141;SDS011;32805;53.556;9.944;2022-10-16T09:33:16;7.93;;;3.92;;
17141;SDS011;32805;53.556;9.944;2022-10-16T09:35:47;4.82;;;2.90;;
17141;SDS011;32805;53.556;9.944;2022-10-16T09:38:21;6.43;;;3.00;;
17141;SDS011;32805;53.556;9.944;2022-10-16T09:40:52;4.88;;;2.10;;
17141;SDS011;32805;53.556;9.944;2022-10-16T09:43:30;5.53;;;2.83;;
17141;SDS011;32805;53.556;9.944;2022-10-16T09:46:03;5.35;;;2.10;;
17141;SDS011;32805;53.556;9.944;2022-10-16T09:48:34;12.30;;;4.55;;
17141;SDS011;32805;53.556;9.944;2022-10-16T09:51:05;5.25;;;2.53;;
17141;SDS011;32805;53.556;9.944;2022-10-16T09:53:43;9.00;;;3.33;;
17141;SDS011;32805;53.556;9.944;2022-10-16T09:56:22;3.80;;;1.70;;
17141;SDS011;32805;53.556;9.944;2022-10-16T09:58:52;5.25;;;3.10;;
17141;SDS011;32805;53.556;9.944;2022-10-16T10:01:21;4.10;;;2.60;;
17141;SDS011;32805;53.556;9.944;2022-10-16T10:03:55;4.60;;;2.33;;
17141;SDS011;32805;53.556;9.944;2022-10-16T10:06:28;3.47;;;2.13;;
17141;SDS011;32805;53.556;9.944;2022-10-16T10:08:59;8.70;;;4.85;;
17141;SDS011;32805;53.556;9.944;2022-10-16T10:11:37;3.53;;;2.22;;
17141;SDS011;32805;53.556;9.944;2022-10-16T10:14:12;4.22;;;1.63;;
17141;SDS011;32805;53.556;9.944;2022-10-16T10:16:44;2.72;;;1.38;;
17141;SDS011;32805;53.556;9.944;2022-10-16T10:19:13;3.40;;;1.77;;
17141;SDS011;32805;53.556;9.944;2022-10-16T10:21:42;2.67;;;1.33;;
17141;SDS011;32805;53.556;9.944;2022-10-16T10:24:11;3.45;;;1.52;;
17141;SDS011;32805;53.556;9.944;2022-10-16T10:26:41;2.05;;;1.52;;
17141;SDS011;32805;53.556;9.944;2022-10-16T10:29:19;5.10;;;1.80;;
17141;SDS011;32805;53.556;9.944;2022-10-16T10:31:57;4.38;;;1.85;;
17141;SDS011;32805;53.556;9.944;2022-10-16T10:34:38;2.00;;;1.55;;
17141;SDS011;32805;53.556;9.944;2022-10-16T10:37:25;3.75;;;1.80;;
17141;SDS011;32805;53.556;9.944;2022-10-16T10:40:03;4.60;;;1.48;;
17141;SDS011;32805;53.556;9.944;2022-10-16T10:42:40;2.70;;;1.90;;
17141;SDS011;32805;53.556;9.944;2022-10-16T10:45:22;2.25;;;1.20;;
17141;SDS011;32805;53.556;9.944;2022-10-16T10:47:57;4.30;;;1.45;;
17141;SDS011;32805;53.556;9.944;2022-10-16T10:50:33;3.72;;;1.52;;
17141;SDS011;32805;53.556;9.944;2022-10-16T10:53:22;3.88;;;1.65;;
17141;SDS011;32805;53.556;9.944;2022-10-16T10:55:59;4.72;;;1.48;;
17141;SDS011;32805;53.556;9.944;2022-10-16T10:58:37;3.70;;;1.88;;
17141;SDS011;32805;53.556;9.944;2022-10-16T11:01:32;4.22;;;1.10;;
17141;SDS011;32805;53.556;9.944;2022-10-16T11:04:19;6.43;;;1.52;;
17141;SDS011;32805;53.556;9.944;2022-10-16T11:07:04;4.45;;;1.10;;
17141;SDS011;32805;53.556;9.944;2022-10-16T11:09:34;1.83;;;0.95;;
17141;SDS011;32805;53.556;9.944;2022-10-16T11:12:06;5.82;;;1.20;;
17141;SDS011;32805;53.556;9.944;2022-10-16T11:14:40;4.05;;;1.55;;
17141;SDS011;32805;53.556;9.944;2022-10-16T11:17:15;5.60;;;1.85;;
17141;SDS011;32805;53.556;9.944;2022-10-16T11:19:48;4.10;;;1.35;;
17141;SDS011;32805;53.556;9.944;2022-10-16T11:22:19;2.15;;;1.25;;
17141;SDS011;32805;53.556;9.944;2022-10-16T11:24:53;2.75;;;1.50;;
17141;SDS011;32805;53.556;9.944;2022-10-16T11:27:27;2.22;;;0.95;;
17141;SDS011;32805;53.556;9.944;2022-10-16T11:30:04;4.10;;;0.98;;
17141;SDS011;32805;53.556;9.944;2022-10-16T11:32:42;2.90;;;1.48;;
17141;SDS011;32805;53.556;9.944;2022-10-16T11:35:20;5.97;;;1.20;;
17141;SDS011;32805;53.556;9.944;2022-10-16T11:37:52;3.53;;;1.33;;
17141;SDS011;32805;53.556;9.944;2022-10-16T11:40:25;3.47;;;1.30;;
17141;SDS011;32805;53.556;9.944;2022-10-16T11:43:01;4.60;;;1.15;;
17141;SDS011;32805;53.556;9.944;2022-10-16T11:45:39;3.05;;;1.30;;
17141;SDS011;32805;53.556;9.944;2022-10-16T11:48:15;2.88;;;1.17;;
17141;SDS011;32805;53.556;9.944;2022-10-16T11:50:51;3.40;;;1.20;;
17141;SDS011;32805;53.556;9.944;2022-10-16T11:53:23;2.75;;;0.95;;
17141;SDS011;32805;53.556;9.944;2022-10-16T11:55:59;2.72;;;0.93;;
17141;SDS011;32805;53.556;9.944;2022-10-16T11:58:27;3.83;;;0.98;;
17141;SDS011;32805;53.556;9.944;2022-10-16T12:01:02;3.17;;;1.77;;
17141;SDS011;32805;53.556;9.944;2022-10-16T12:03:44;4.07;;;1.40;;
17141;SDS011;32805;53.556;9.944;2022-10-16T12:06:25;2.38;;;1.30;;
17141;SDS011;32805;53.556;9.944;2022-10-16T12:09:01;3.45;;;0.98;;
17141;SDS011;32805;53.556;9.944;2022-10-16T12:11:34;6.95;;;1.25;;
17141;SDS011;32805;53.556;9.944;2022-10-16T12:14:06;7.45;;;2.05;;
17141;SDS011;32805;53.556;9.944;2022-10-16T12:16:52;4.38;;;1.77;;
17141;SDS011;32805;53.556;9.944;2022-10-16T12:19:24;4.28;;;1.90;;
17141;SDS011;32805;53.556;9.944;2022-10-16T12:21:54;2.92;;;1.17;;
17141;SDS011;32805;53.556;9.944;2022-10-16T12:24:34;2.97;;;1.25;;
17141;SDS011;32805;53.556;9.944;2022-10-16T12:27:04;3.65;;;2.03;;
17141;SDS011;32805;53.556;9.944;2022-10-16T12:29:35;2.92;;;1.23;;
17141;SDS011;32805;53.556;9.944;2022-10-16T12:32:06;3.72;;;2.40;;
17141;SDS011;32805;53.556;9.944;2022-10-16T12:35:18;5.20;;;1.92;;
17141;SDS011;32805;53.556;9.944;2022-10-16T12:37:48;6.63;;;2.30;;
17141;SDS011;32805;53.556;9.944;2022-10-16T12:40:23;6.90;;;2.45;;
17141;SDS011;32805;53.556;9.944;2022-10-16T12:42:54;3.45;;;1.48;;
17141;SDS011;32805;53.556;9.944;2022-10-16T12:45:26;6.18;;;1.70;;
17141;SDS011;32805;53.556;9.944;2022-10-16T12:47:57;5.45;;;1.63;;
17141;SDS011;32805;53.556;9.944;2022-10-16T12:50:29;6.00;;;1.90;;
17141;SDS011;32805;53.556;9.944;2022-10-16T12:52:59;4.60;;;1.83;;
17141;SDS011;32805;53.556;9.944;2022-10-16T12:55:30;3.15;;;2.15;;
17141;SDS011;32805;53.556;9.944;2022-10-16T13:01:01;5.03;;;2.10;;
17141;SDS011;32805;53.556;9.944;2022-10-16T13:06:35;6.93;;;2.78;;
17141;SDS011;32805;53.556;9.944;2022-10-16T13:09:19;6.32;;;2.70;;
17141;SDS011;32805;53.556;9.944;2022-10-16T13:11:58;7.68;;;3.63;;
17141;SDS011;32805;53.556;9.944;2022-10-16T13:14:39;8.27;;;3.25;;
17141;SDS011;32805;53.556;9.944;2022-10-16T13:17:22;5.47;;;2.60;;
17141;SDS011;32805;53.556;9.944;2022-10-16T13:19:59;6.53;;;1.45;;
17141;SDS011;32805;53.556;9.944;2022-10-16T13:22:35;2.75;;;1.33;;
17141;SDS011;32805;53.556;9.944;2022-10-16T13:25:13;6.35;;;1.60;;
17141;SDS011;32805;53.556;9.944;2022-10-16T13:27:51;1.75;;;0.93;;
17141;SDS011;32805;53.556;9.944;2022-10-16T13:30:23;5.05;;;2.00;;
17141;SDS011;32805;53.556;9.944;2022-10-16T13:32:58;5.15;;;2.20;;
17141;SDS011;32805;53.556;9.944;2022-10-16T13:35:27;6.63;;;2.20;;
17141;SDS011;32805;53.556;9.944;2022-10-16T13:38:05;3.75;;;1.98;;
17141;SDS011;32805;53.556;9.944;2022-10-16T13:40:47;4.90;;;2.28;;
17141;SDS011;32805;53.556;9.944;2022-10-16T13:43:16;9.40;;;4.05;;
17141;SDS011;32805;53.556;9.944;2022-10-16T13:45:52;4.88;;;2.80;;
17141;SDS011;32805;53.556;9.944;2022-10-16T13:48:21;4.10;;;1.63;;
17141;SDS011;32805;53.556;9.944;2022-10-16T13:50:59;5.32;;;2.65;;
17141;SDS011;32805;53.556;9.944;2022-10-16T13:53:30;5.63;;;2.63;;
17141;SDS011;32805;53.556;9.944;2022-10-16T13:55:59;5.53;;;2.67;;
17141;SDS011;32805;53.556;9.944;2022-10-16T13:58:28;4.25;;;1.85;;
17141;SDS011;32805;53.556;9.944;2022-10-16T14:00:56;5.93;;;1.83;;
17141;SDS011;32805;53.556;9.944;2022-10-16T14:03:26;4.07;;;1.60;;
17141;SDS011;32805;53.556;9.944;2022-10-16T14:05:55;2.65;;;1.40;;
17141;SDS011;32805;53.556;9.944;2022-10-16T14:08:25;5.05;;;1.88;;
17141;SDS011;32805;53.556;9.944;2022-10-16T14:10:56;5.55;;;1.35;;
17141;SDS011;32805;53.556;9.944;2022-10-16T14:13:28;4.35;;;1.20;;
17141;SDS011;32805;53.556;9.944;2022-10-16T14:16:00;6.75;;;1.83;;
17141;SDS011;32805;53.556;9.944;2022-10-16T14:18:32;3.08;;;1.17;;
17141;SDS011;32805;53.556;9.944;2022-10-16T14:21:04;4.15;;;1.60;;
17141;SDS011;32805;53.556;9.944;2022-10-16T14:23:35;4.97;;;1.25;;
17141;SDS011;32805;53.556;9.944;2022-10-16T14:26:16;5.07;;;1.30;;
17141;SDS011;32805;53.556;9.944;2022-10-16T14:28:46;3.85;;;1.70;;
17141;SDS011;32805;53.556;9.944;2022-10-16T14:31:24;3.33;;;0.98;;
17141;SDS011;32805;53.556;9.944;2022-10-16T14:33:54;4.80;;;1.33;;
17141;SDS011;32805;53.556;9.944;2022-10-16T14:36:22;3.15;;;1.13;;
17141;SDS011;32805;53.556;9.944;2022-10-16T14:38:59;4.47;;;1.35;;
17141;SDS011;32805;53.556;9.944;2022-10-16T14:41:31;2.33;;;1.27;;
17141;SDS011;32805;53.556;9.944;2022-10-16T14:44:09;3.60;;;1.20;;
17141;SDS011;32805;53.556;9.944;2022-10-16T14:46:39;4.38;;;1.20;;
17141;SDS011;32805;53.556;9.944;2022-10-16T14:49:13;4.70;;;1.70;;
17141;SDS011;32805;53.556;9.944;2022-10-16T14:51:44;5.22;;;1.70;;
17141;SDS011;32805;53.556;9.944;2022-10-16T14:54:12;4.13;;;1.20;;
17141;SDS011;32805;53.556;9.944;2022-10-16T14:56:45;4.57;;;1.45;;
17141;SDS011;32805;53.556;9.944;2022-10-16T14:59:16;3.17;;;1.27;;
17141;SDS011;32805;53.556;9.944;2022-10-16T15:01:46;5.65;;;1.38;;
17141;SDS011;32805;53.556;9.944;2022-10-16T15:04:14;4.90;;;2.30;;
17141;SDS011;32805;53.556;9.944;2022-10-16T15:06:42;2.97;;;1.20;;
17141;SDS011;32805;53.556;9.944;2022-10-16T15:09:10;4.03;;;1.20;;
17141;SDS011;32805;53.556;9.944;2022-10-16T15:11:38;4.18;;;1.02;;
17141;SDS011;32805;53.556;9.944;2022-10-16T15:14:09;6.65;;;1.40;;
17141;SDS011;32805;53.556;9.944;2022-10-16T15:16:41;4.88;;;1.25;;
17141;SDS011;32805;53.556;9.944;2022-10-16T15:19:09;6.65;;;2.30;;